sensor_id;sensor_type;location;lat;lon;timestamp;pressure;altitude;pressure_sealevel;temperature;humidity
75775;BME280;64505;51.458;7.556;2023-04-01T00:02:01;97575.53;;;9.01;90.69
75775;BME280;64505;51.458;7.556;2023-04-01T00:04:03;97570.25;;;9.01;90.22
75775;BME280;64505;51.458;7.556;2023-04-01T00:06:04;97567.88;;;9.04;90.33
75775;BME280;64505;51.458;7.556;2023-04-01T00:08:06;97570.50;;;8.99;91.24
75775;BME280;64505;51.458;7.556;2023-04-01T00:10:10;97571.56;;;8.98;91.37
75775;BME280;64505;51.458;7.556;2023-04-01T00:12:12;97576.03;;;8.98;90.94
75775;BME280;64505;51.458;7.556;2023-04-01T00:14:14;97572.88;;;8.96;91.36
75775;BME280;64505;51.458;7.556;2023-04-01T00:16:15;97568.94;;;8.98;91.36
75775;BME280;64505;51.458;7.556;2023-04-01T00:18:23;97573.41;;;8.93;91.00
75775;BME280;64505;51.458;7.556;2023-04-01T00:20:25;97571.56;;;8.98;91.05
75775;BME280;64505;51.458;7.556;2023-04-01T00:22:26;97563.66;;;8.98;91.23
75775;BME280;64505;51.458;7.556;2023-04-01T00:24:28;97576.03;;;8.98;90.62
75775;BME280;64505;51.458;7.556;2023-04-01T00:26:29;97562.59;;;8.94;91.02
75775;BME280;64505;51.458;7.556;2023-04-01T00:28:33;97568.94;;;8.93;91.40
75775;BME280;64505;51.458;7.556;2023-04-01T00:30:36;97558.41;;;8.93;91.39
75775;BME280;64505;51.458;7.556;2023-04-01T00:32:38;97563.66;;;8.93;91.67
75775;BME280;64505;51.458;7.556;2023-04-01T00:34:40;97561.28;;;8.92;91.45
75775;BME280;64505;51.458;7.556;2023-04-01T00:36:42;97565.75;;;8.91;91.59
75775;BME280;64505;51.458;7.556;2023-04-01T00:38:43;97570.25;;;8.90;91.80
75775;BME280;64505;51.458;7.556;2023-04-01T00:40:45;97570.53;;;8.89;92.22
75775;BME280;64505;51.458;7.556;2023-04-01T00:42:47;97561.81;;;8.88;91.76
75775;BME280;64505;51.458;7.556;2023-04-01T00:44:53;97560.78;;;8.89;91.52
75775;BME280;64505;51.458;7.556;2023-04-01T00:46:56;97566.81;;;8.90;92.13
75775;BME280;64505;51.458;7.556;2023-04-01T00:48:57;97560.22;;;8.87;92.45
75775;BME280;64505;51.458;7.556;2023-04-01T00:51:13;97570.53;;;8.89;91.70
75775;BME280;64505;51.458;7.556;2023-04-01T00:53:17;97565.25;;;8.89;91.72
75775;BME280;64505;51.458;7.556;2023-04-01T00:55:21;97563.91;;;8.86;91.47
75775;BME280;64505;51.458;7.556;2023-04-01T00:57:27;97553.38;;;8.86;92.57
75775;BME280;64505;51.458;7.556;2023-04-01T00:59:32;97560.75;;;8.84;92.20
75775;BME280;64505;51.458;7.556;2023-04-01T01:01:35;97565.78;;;8.86;92.35
75775;BME280;64505;51.458;7.556;2023-04-01T01:03:37;97555.25;;;8.86;92.65
75775;BME280;64505;51.458;7.556;2023-04-01T01:05:55;97557.34;;;8.84;93.02
75775;BME280;64505;51.458;7.556;2023-04-01T01:08:21;97559.97;;;8.84;92.23
75775;BME280;64505;51.458;7.556;2023-04-01T01:10:31;97562.06;;;8.87;92.67
75775;BME280;64505;51.458;7.556;2023-04-01T01:12:53;97555.75;;;8.83;93.22
75775;BME280;64505;51.458;7.556;2023-04-01T01:15:13;97553.09;;;8.83;92.93
75775;BME280;64505;51.458;7.556;2023-04-01T01:17:35;97552.59;;;8.81;92.36
75775;BME280;64505;51.458;7.556;2023-04-01T01:19:57;97554.19;;;8.82;92.21
75775;BME280;64505;51.458;7.556;2023-04-01T01:22:33;97545.22;;;8.78;92.64
75775;BME280;64505;51.458;7.556;2023-04-01T01:25:32;97548.13;;;8.81;92.39
75775;BME280;64505;51.458;7.556;2023-04-01T01:27:17;97548.38;;;8.80;92.25
75775;BME280;64505;51.458;7.556;2023-04-01T01:36:31;97538.38;;;8.82;91.76
75775;BME280;64505;51.458;7.556;2023-04-01T01:38:36;97536.78;;;8.81;91.56
75775;BME280;64505;51.458;7.556;2023-04-01T01:40:41;97538.91;;;8.79;92.41
75775;BME280;64505;51.458;7.556;2023-04-01T01:42:48;97538.38;;;8.82;92.12
75775;BME280;64505;51.458;7.556;2023-04-01T01:44:52;97533.88;;;8.77;91.84
75775;BME280;64505;51.458;7.556;2023-04-01T01:46:56;97532.03;;;8.78;92.56
75775;BME280;64505;51.458;7.556;2023-04-01T01:48:59;97534.41;;;8.79;92.31
75775;BME280;64505;51.458;7.556;2023-04-01T01:51:02;97536.28;;;8.79;92.81
75775;BME280;64505;51.458;7.556;2023-04-01T01:53:07;97534.94;;;8.76;92.31
75775;BME280;64505;51.458;7.556;2023-04-01T01:55:40;97527.28;;;8.80;92.30
75775;BME280;64505;51.458;7.556;2023-04-01T01:57:44;97538.09;;;8.73;93.17
75775;BME280;64505;51.458;7.556;2023-04-01T01:59:47;97534.41;;;8.74;92.35
75775;BME280;64505;51.458;7.556;2023-04-01T02:01:51;97536.78;;;8.76;92.36
75775;BME280;64505;51.458;7.556;2023-04-01T02:03:55;97532.81;;;8.73;92.34
75775;BME280;64505;51.458;7.556;2023-04-01T02:06:00;97540.47;;;8.75;92.49
75775;BME280;64505;51.458;7.556;2023-04-01T02:08:08;97542.03;;;8.76;92.63
75775;BME280;64505;51.458;7.556;2023-04-01T02:10:12;97529.94;;;8.75;92.53
75775;BME280;64505;51.458;7.556;2023-04-01T02:12:15;97530.72;;;8.75;93.10
75775;BME280;64505;51.458;7.556;2023-04-01T02:14:23;97538.09;;;8.73;92.50
75775;BME280;64505;51.458;7.556;2023-04-01T02:16:32;97525.19;;;8.72;92.62
75775;BME280;64505;51.458;7.556;2023-04-01T02:18:37;97531.25;;;8.72;92.54
75775;BME280;64505;51.458;7.556;2023-04-01T02:20:40;97540.97;;;8.72;92.57
75775;BME280;64505;51.458;7.556;2023-04-01T02:22:54;97532.03;;;8.73;92.56
75775;BME280;64505;51.458;7.556;2023-04-01T02:25:11;97541.78;;;8.72;93.05
75775;BME280;64505;51.458;7.556;2023-04-01T02:27:13;97539.94;;;8.73;92.91
75775;BME280;64505;51.458;7.556;2023-04-01T02:29:16;97540.97;;;8.72;93.30
75775;BME280;64505;51.458;7.556;2023-04-01T02:31:20;97539.69;;;8.74;92.99
75775;BME280;64505;51.458;7.556;2023-04-01T02:33:22;97538.09;;;8.68;93.58
75775;BME280;64505;51.458;7.556;2023-04-01T02:35:24;97535.72;;;8.72;92.22
75775;BME280;64505;51.458;7.556;2023-04-01T02:37:26;97544.69;;;8.71;92.63
75775;BME280;64505;51.458;7.556;2023-04-01T02:39:28;97535.44;;;8.68;93.00
75775;BME280;64505;51.458;7.556;2023-04-01T02:41:30;97535.19;;;8.70;93.17
75775;BME280;64505;51.458;7.556;2023-04-01T02:43:32;97538.09;;;8.68;92.95
75775;BME280;64505;51.458;7.556;2023-04-01T02:45:34;97533.59;;;8.69;92.86
75775;BME280;64505;51.458;7.556;2023-04-01T02:47:36;97537.56;;;8.66;92.79
75775;BME280;64505;51.458;7.556;2023-04-01T02:49:37;97529.41;;;8.68;92.53
75775;BME280;64505;51.458;7.556;2023-04-01T02:51:39;97526.50;;;8.64;92.03
75775;BME280;64505;51.458;7.556;2023-04-01T02:53:40;97533.63;;;8.64;91.63
75775;BME280;64505;51.458;7.556;2023-04-01T02:55:42;97535.97;;;8.65;92.00
75775;BME280;64505;51.458;7.556;2023-04-01T02:57:43;97527.53;;;8.58;91.53
75775;BME280;64505;51.458;7.556;2023-04-01T02:59:45;97524.38;;;8.61;91.38
75775;BME280;64505;51.458;7.556;2023-04-01T03:01:46;97523.88;;;8.59;91.28
75775;BME280;64505;51.458;7.556;2023-04-01T03:03:48;97526.25;;;8.61;91.35
75775;BME280;64505;51.458;7.556;2023-04-01T03:05:49;97529.13;;;8.59;91.83
75775;BME280;64505;51.458;7.556;2023-04-01T03:07:51;97528.09;;;8.60;91.27
75775;BME280;64505;51.458;7.556;2023-04-01T03:09:52;97531.25;;;8.57;91.41
75775;BME280;64505;51.458;7.556;2023-04-01T03:11:54;97534.16;;;8.61;91.58
75775;BME280;64505;51.458;7.556;2023-04-01T03:13:56;97531.25;;;8.57;92.50
75775;BME280;64505;51.458;7.556;2023-04-01T03:15:57;97540.44;;;8.55;92.33
75775;BME280;64505;51.458;7.556;2023-04-01T03:17:59;97534.13;;;8.56;92.23
75775;BME280;64505;51.458;7.556;2023-04-01T03:20:01;97528.88;;;8.56;92.50
75775;BME280;64505;51.458;7.556;2023-04-01T03:22:03;97544.41;;;8.52;92.58
75775;BME280;64505;51.458;7.556;2023-04-01T03:24:05;97548.91;;;8.57;92.04
75775;BME280;64505;51.458;7.556;2023-04-01T03:26:07;97543.34;;;8.58;92.02
75775;BME280;64505;51.458;7.556;2023-04-01T03:28:09;97541.78;;;8.57;92.36
75775;BME280;64505;51.458;7.556;2023-04-01T03:30:11;97547.06;;;8.57;92.22
75775;BME280;64505;51.458;7.556;2023-04-01T03:32:13;97541.00;;;8.57;92.55
75775;BME280;64505;51.458;7.556;2023-04-01T03:34:14;97546.50;;;8.55;92.77
75775;BME280;64505;51.458;7.556;2023-04-01T03:36:16;97550.19;;;8.54;93.02
75775;BME280;64505;51.458;7.556;2023-04-01T03:38:17;97547.03;;;8.52;92.87
75775;BME280;64505;51.458;7.556;2023-04-01T03:40:20;97546.50;;;8.55;92.53
75775;BME280;64505;51.458;7.556;2023-04-01T03:42:22;97540.44;;;8.55;92.80
75775;BME280;64505;51.458;7.556;2023-04-01T03:44:23;97548.09;;;8.51;92.67
75775;BME280;64505;51.458;7.556;2023-04-01T03:46:25;97535.72;;;8.52;92.60
75775;BME280;64505;51.458;7.556;2023-04-01T03:48:26;97539.94;;;8.53;92.63
75775;BME280;64505;51.458;7.556;2023-04-01T03:50:28;97546.25;;;8.52;92.63
75775;BME280;64505;51.458;7.556;2023-04-01T03:52:31;97544.66;;;8.51;92.73
75775;BME280;64505;51.458;7.556;2023-04-01T03:54:33;97538.31;;;8.47;93.29
75775;BME280;64505;51.458;7.556;2023-04-01T03:56:34;97547.31;;;8.46;93.26
75775;BME280;64505;51.458;7.556;2023-04-01T03:58:36;97543.06;;;8.45;93.40
75775;BME280;64505;51.458;7.556;2023-04-01T04:00:38;97551.25;;;8.48;93.00
75775;BME280;64505;51.458;7.556;2023-04-01T04:02:39;97551.50;;;8.47;93.28
75775;BME280;64505;51.458;7.556;2023-04-01T04:04:41;97554.41;;;8.45;93.57
75775;BME280;64505;51.458;7.556;2023-04-01T04:06:42;97549.38;;;8.44;93.89
75775;BME280;64505;51.458;7.556;2023-04-01T04:08:44;97550.97;;;8.39;94.08
75775;BME280;64505;51.458;7.556;2023-04-01T04:10:45;97566.50;;;8.41;93.95
75775;BME280;64505;51.458;7.556;2023-04-01T04:12:49;97552.56;;;8.40;93.61
75775;BME280;64505;51.458;7.556;2023-04-01T04:14:50;97563.34;;;8.44;93.90
75775;BME280;64505;51.458;7.556;2023-04-01T04:16:52;97563.09;;;8.40;93.99
75775;BME280;64505;51.458;7.556;2023-04-01T04:18:53;97563.91;;;8.46;93.96
75775;BME280;64505;51.458;7.556;2023-04-01T04:20:55;97569.94;;;8.47;94.48
75775;BME280;64505;51.458;7.556;2023-04-01T04:22:56;97559.66;;;8.40;94.44
75775;BME280;64505;51.458;7.556;2023-04-01T04:24:58;97564.66;;;8.47;93.82
75775;BME280;64505;51.458;7.556;2023-04-01T04:26:59;97571.53;;;8.43;94.14
75775;BME280;64505;51.458;7.556;2023-04-01T04:29:00;97573.34;;;8.47;93.39
75775;BME280;64505;51.458;7.556;2023-04-01T04:31:03;97568.09;;;8.47;94.38
75775;BME280;64505;51.458;7.556;2023-04-01T04:33:06;97576.28;;;8.46;94.57
75775;BME280;64505;51.458;7.556;2023-04-01T04:35:08;97578.91;;;8.46;94.36
75775;BME280;64505;51.458;7.556;2023-04-01T04:37:09;97573.63;;;8.46;94.86
75775;BME280;64505;51.458;7.556;2023-04-01T04:39:11;97575.47;;;8.45;94.43
75775;BME280;64505;51.458;7.556;2023-04-01T04:41:14;97573.63;;;8.46;94.49
75775;BME280;64505;51.458;7.556;2023-04-01T04:43:17;97575.47;;;8.45;94.75
75775;BME280;64505;51.458;7.556;2023-04-01T04:45:18;97572.06;;;8.45;94.60
75775;BME280;64505;51.458;7.556;2023-04-01T04:47:20;97578.91;;;8.46;94.33
75775;BME280;64505;51.458;7.556;2023-04-01T04:49:21;97579.16;;;8.44;94.38
75775;BME280;64505;51.458;7.556;2023-04-01T04:51:23;97576.78;;;8.48;94.37
75775;BME280;64505;51.458;7.556;2023-04-01T04:53:24;97579.97;;;8.50;94.45
75775;BME280;64505;51.458;7.556;2023-04-01T04:55:27;97582.84;;;8.48;94.02
75775;BME280;64505;51.458;7.556;2023-04-01T04:57:28;97586.00;;;8.50;94.28
75775;BME280;64505;51.458;7.556;2023-04-01T04:59:30;97584.44;;;8.49;94.08
75775;BME280;64505;51.458;7.556;2023-04-01T05:01:32;97584.44;;;8.54;94.08
75775;BME280;64505;51.458;7.556;2023-04-01T05:03:34;97585.50;;;8.53;93.99
75775;BME280;64505;51.458;7.556;2023-04-01T05:05:36;97588.66;;;8.55;94.43
75775;BME280;64505;51.458;7.556;2023-04-01T05:07:37;97589.97;;;8.53;94.27
75775;BME280;64505;51.458;7.556;2023-04-01T05:09:39;97595.78;;;8.55;94.48
75775;BME280;64505;51.458;7.556;2023-04-01T05:11:40;97595.25;;;8.58;94.35
75775;BME280;64505;51.458;7.556;2023-04-01T05:13:43;97591.28;;;8.55;94.71
75775;BME280;64505;51.458;7.556;2023-04-01T05:15:45;97597.09;;;8.52;94.70
75775;BME280;64505;51.458;7.556;2023-04-01T05:17:46;97591.56;;;8.59;94.08
75775;BME280;64505;51.458;7.556;2023-04-01T05:19:48;97594.47;;;8.57;94.32
75775;BME280;64505;51.458;7.556;2023-04-01T05:21:49;97596.84;;;8.59;94.22
75775;BME280;64505;51.458;7.556;2023-04-01T05:23:51;97595.00;;;8.59;94.35
75775;BME280;64505;51.458;7.556;2023-04-01T05:25:52;97588.41;;;8.62;94.26
75775;BME280;64505;51.458;7.556;2023-04-01T05:27:54;97602.13;;;8.64;94.25
75775;BME280;64505;51.458;7.556;2023-04-01T05:29:55;97600.00;;;8.61;94.45
75775;BME280;64505;51.458;7.556;2023-04-01T05:31:57;97603.16;;;8.63;94.27
75775;BME280;64505;51.458;7.556;2023-04-01T05:33:58;97598.41;;;8.60;94.35
75775;BME280;64505;51.458;7.556;2023-04-01T05:36:12;97607.38;;;8.64;94.56
75775;BME280;64505;51.458;7.556;2023-04-01T05:38:13;97599.22;;;8.65;94.48
75775;BME280;64505;51.458;7.556;2023-04-01T05:40:15;97603.97;;;8.63;94.67
75775;BME280;64505;51.458;7.556;2023-04-01T05:42:16;97608.19;;;8.64;94.56
75775;BME280;64505;51.458;7.556;2023-04-01T05:44:18;97608.69;;;8.66;94.59
75775;BME280;64505;51.458;7.556;2023-04-01T05:46:19;97606.59;;;8.68;94.50
75775;BME280;64505;51.458;7.556;2023-04-01T05:48:21;97609.22;;;8.68;94.60
75775;BME280;64505;51.458;7.556;2023-04-01T05:50:22;97612.66;;;8.69;94.22
75775;BME280;64505;51.458;7.556;2023-04-01T05:52:24;97615.81;;;8.76;94.23
75775;BME280;64505;51.458;7.556;2023-04-01T05:54:25;97619.53;;;8.75;94.10
75775;BME280;64505;51.458;7.556;2023-04-01T05:56:26;97617.41;;;8.77;94.50
75775;BME280;64505;51.458;7.556;2023-04-01T05:58:28;97614.53;;;8.78;94.14
75775;BME280;64505;51.458;7.556;2023-04-01T06:00:29;97617.16;;;8.78;93.86
75775;BME280;64505;51.458;7.556;2023-04-01T06:02:31;97612.44;;;8.85;93.83
75775;BME280;64505;51.458;7.556;2023-04-01T06:04:37;97614.50;;;8.83;94.21
75775;BME280;64505;51.458;7.556;2023-04-01T06:06:39;97618.50;;;8.86;94.33
75775;BME280;64505;51.458;7.556;2023-04-01T06:08:41;97618.22;;;8.87;94.45
75775;BME280;64505;51.458;7.556;2023-04-01T06:15:24;97626.41;;;8.96;93.59
75775;BME280;64505;51.458;7.556;2023-04-01T06:19:47;97627.19;;;9.02;93.83
75775;BME280;64505;51.458;7.556;2023-04-01T06:22:02;97630.63;;;9.02;93.83
75775;BME280;64505;51.458;7.556;2023-04-01T06:31:57;97635.63;;;9.09;93.48
75775;BME280;64505;51.458;7.556;2023-04-01T06:39:01;97649.31;;;9.16;93.72
75775;BME280;64505;51.458;7.556;2023-04-01T06:56:05;97644.06;;;9.36;93.44
75775;BME280;64505;51.458;7.556;2023-04-01T06:58:42;97638.78;;;9.41;93.05
75775;BME280;64505;51.458;7.556;2023-04-01T07:00:48;97649.31;;;9.41;92.90
75775;BME280;64505;51.458;7.556;2023-04-01T07:03:03;97654.34;;;9.37;92.90
75775;BME280;64505;51.458;7.556;2023-04-01T07:05:07;97641.94;;;9.48;92.98
75775;BME280;64505;51.458;7.556;2023-04-01T07:07:19;97649.59;;;9.45;92.58
75775;BME280;64505;51.458;7.556;2023-04-01T07:09:27;97651.44;;;9.54;92.88
75775;BME280;64505;51.458;7.556;2023-04-01T07:11:35;97651.97;;;9.46;92.43
75775;BME280;64505;51.458;7.556;2023-04-01T07:13:53;97650.63;;;9.59;92.01
75775;BME280;64505;51.458;7.556;2023-04-01T07:18:21;97657.22;;;9.56;91.98
75775;BME280;64505;51.458;7.556;2023-04-01T07:20:29;97662.25;;;9.58;91.59
75775;BME280;64505;51.458;7.556;2023-04-01T07:22:43;97650.66;;;9.54;92.49
75775;BME280;64505;51.458;7.556;2023-04-01T07:24:46;97654.31;;;9.63;92.64
75775;BME280;64505;51.458;7.556;2023-04-01T07:26:55;97661.19;;;9.54;92.40
75775;BME280;64505;51.458;7.556;2023-04-01T07:28:57;97664.09;;;9.57;91.95
75775;BME280;64505;51.458;7.556;2023-04-01T07:33:33;97668.06;;;9.65;92.79
75775;BME280;64505;51.458;7.556;2023-04-01T07:35:43;97669.34;;;9.62;92.35
75775;BME280;64505;51.458;7.556;2023-04-01T07:44:22;97671.72;;;9.59;92.86
75775;BME280;64505;51.458;7.556;2023-04-01T07:46:33;97672.25;;;9.66;92.12
75775;BME280;64505;51.458;7.556;2023-04-01T07:51:02;97679.94;;;9.57;92.71
75775;BME280;64505;51.458;7.556;2023-04-01T07:55:16;97680.97;;;9.66;92.23
75775;BME280;64505;51.458;7.556;2023-04-01T07:57:30;97679.09;;;9.77;91.69
75775;BME280;64505;51.458;7.556;2023-04-01T08:04:01;97684.66;;;9.75;91.85
75775;BME280;64505;51.458;7.556;2023-04-01T08:06:24;97686.22;;;9.81;92.47
75775;BME280;64505;51.458;7.556;2023-04-01T08:10:57;97695.16;;;9.96;91.47
75775;BME280;64505;51.458;7.556;2023-04-01T08:15:46;97697.84;;;9.85;90.94
75775;BME280;64505;51.458;7.556;2023-04-01T08:20:23;97704.72;;;9.86;92.09
75775;BME280;64505;51.458;7.556;2023-04-01T08:22:32;97708.38;;;9.80;91.26
75775;BME280;64505;51.458;7.556;2023-04-01T08:24:45;97706.81;;;9.84;92.06
75775;BME280;64505;51.458;7.556;2023-04-01T08:26:53;97712.59;;;9.92;91.64
75775;BME280;64505;51.458;7.556;2023-04-01T08:29:01;97715.78;;;9.94;91.99
75775;BME280;64505;51.458;7.556;2023-04-01T08:31:09;97715.75;;;9.99;91.77
75775;BME280;64505;51.458;7.556;2023-04-01T08:33:17;97714.72;;;10.05;91.37
75775;BME280;64505;51.458;7.556;2023-04-01T08:35:30;97717.31;;;10.10;90.75
75775;BME280;64505;51.458;7.556;2023-04-01T08:37:37;97719.19;;;10.14;90.72
75775;BME280;64505;51.458;7.556;2023-04-01T08:39:45;97724.22;;;10.16;90.41
75775;BME280;64505;51.458;7.556;2023-04-01T09:00:44;97743.22;;;10.13;91.17
75775;BME280;64505;51.458;7.556;2023-04-01T09:05:26;97741.09;;;10.10;90.95
75775;BME280;64505;51.458;7.556;2023-04-01T09:07:48;97753.22;;;10.06;90.03
75775;BME280;64505;51.458;7.556;2023-04-01T09:09:59;97748.25;;;10.04;90.26
75775;BME280;64505;51.458;7.556;2023-04-01T09:15:03;97754.56;;;10.03;90.85
75775;BME280;64505;51.458;7.556;2023-04-01T09:24:41;97754.81;;;10.07;89.72
75775;BME280;64505;51.458;7.556;2023-04-01T09:27:49;97762.50;;;9.93;89.91
75775;BME280;64505;51.458;7.556;2023-04-01T09:32:04;97774.09;;;10.02;90.28
75775;BME280;64505;51.458;7.556;2023-04-01T09:36:55;97770.16;;;10.05;90.73
75775;BME280;64505;51.458;7.556;2023-04-01T09:41:46;97785.75;;;10.01;89.80
75775;BME280;64505;51.458;7.556;2023-04-01T09:44:00;97782.56;;;10.04;89.49
75775;BME280;64505;51.458;7.556;2023-04-01T09:46:19;97778.59;;;10.12;89.74
75775;BME280;64505;51.458;7.556;2023-04-01T09:53:04;97789.44;;;10.20;90.10
75775;BME280;64505;51.458;7.556;2023-04-01T09:57:54;97794.72;;;10.25;90.17
75775;BME280;64505;51.458;7.556;2023-04-01T10:00:32;97797.09;;;10.22;91.06
75775;BME280;64505;51.458;7.556;2023-04-01T10:05:48;97801.59;;;10.21;90.06
75775;BME280;64505;51.458;7.556;2023-04-01T10:13:05;97805.00;;;10.17;90.71
75775;BME280;64505;51.458;7.556;2023-04-01T10:15:43;97817.69;;;10.05;91.11
75775;BME280;64505;51.458;7.556;2023-04-01T10:20:16;97811.09;;;10.17;90.36
75775;BME280;64505;51.458;7.556;2023-04-01T10:22:40;97819.78;;;10.33;90.28
75775;BME280;64505;51.458;7.556;2023-04-01T10:29:32;97831.16;;;10.33;90.18
75775;BME280;64505;51.458;7.556;2023-04-01T10:37:27;97831.09;;;10.64;89.59
75775;BME280;64505;51.458;7.556;2023-04-01T10:44:26;97831.56;;;10.86;89.49
75775;BME280;64505;51.458;7.556;2023-04-01T10:49:14;97828.69;;;10.72;88.82
75775;BME280;64505;51.458;7.556;2023-04-01T10:51:32;97830.03;;;10.65;88.77
75775;BME280;64505;51.458;7.556;2023-04-01T10:53:46;97832.38;;;10.71;89.21
75775;BME280;64505;51.458;7.556;2023-04-01T11:13:37;97838.91;;;10.99;88.37
75775;BME280;64505;51.458;7.556;2023-04-01T11:16:05;97841.53;;;11.04;88.75
75775;BME280;64505;51.458;7.556;2023-04-01T11:25:09;97845.28;;;10.93;88.87
75775;BME280;64505;51.458;7.556;2023-04-01T11:29:45;97861.44;;;10.92;88.21
75775;BME280;64505;51.458;7.556;2023-04-01T11:49:02;97873.78;;;11.11;88.02
75775;BME280;64505;51.458;7.556;2023-04-01T11:53:42;97882.00;;;11.00;88.81
75775;BME280;64505;51.458;7.556;2023-04-01T11:56:13;97886.53;;;10.99;89.97
75775;BME280;64505;51.458;7.556;2023-04-01T12:01:12;97893.16;;;10.92;88.78
75775;BME280;64505;51.458;7.556;2023-04-01T12:05:43;97898.69;;;10.95;89.50
75775;BME280;64505;51.458;7.556;2023-04-01T12:10:19;97902.66;;;10.93;88.63
75775;BME280;64505;51.458;7.556;2023-04-01T12:13:02;97912.22;;;10.89;89.86
75775;BME280;64505;51.458;7.556;2023-04-01T12:15:20;97910.63;;;10.82;89.31
75775;BME280;64505;51.458;7.556;2023-04-01T12:17:36;97915.13;;;10.77;88.53
75775;BME280;64505;51.458;7.556;2023-04-01T12:19:47;97909.31;;;10.75;88.92
75775;BME280;64505;51.458;7.556;2023-04-01T12:31:58;97927.50;;;11.02;88.74
75775;BME280;64505;51.458;7.556;2023-04-01T12:41:46;97931.94;;;11.26;87.93
75775;BME280;64505;51.458;7.556;2023-04-01T12:44:11;97934.28;;;11.33;88.54
75775;BME280;64505;51.458;7.556;2023-04-01T12:46:29;97944.84;;;11.33;88.81
75775;BME280;64505;51.458;7.556;2023-04-01T12:49:08;97942.78;;;11.25;88.42
75775;BME280;64505;51.458;7.556;2023-04-01T12:51:24;97937.50;;;11.20;88.48
75775;BME280;64505;51.458;7.556;2023-04-01T12:53:57;97938.59;;;11.14;89.39
75775;BME280;64505;51.458;7.556;2023-04-01T12:56:03;97950.22;;;11.08;88.78
75775;BME280;64505;51.458;7.556;2023-04-01T13:00:54;97958.69;;;11.00;89.65
75775;BME280;64505;51.458;7.556;2023-04-01T13:05:41;97965.75;;;11.40;87.95
75775;BME280;64505;51.458;7.556;2023-04-01T13:13:23;97963.66;;;12.01;87.44
75775;BME280;64505;51.458;7.556;2023-04-01T13:27:09;97980.75;;;12.57;84.24
75775;BME280;64505;51.458;7.556;2023-04-01T13:29:20;97981.69;;;12.38;84.23
75775;BME280;64505;51.458;7.556;2023-04-01T13:34:04;97985.81;;;12.15;85.35
75775;BME280;64505;51.458;7.556;2023-04-01T13:36:17;97988.63;;;11.84;85.55
75775;BME280;64505;51.458;7.556;2023-04-01T13:41:01;97994.56;;;11.51;85.99
75775;BME280;64505;51.458;7.556;2023-04-01T13:45:12;97998.53;;;11.44;85.82
75775;BME280;64505;51.458;7.556;2023-04-01T13:49:41;98009.44;;;11.22;87.60
75775;BME280;64505;51.458;7.556;2023-04-01T13:51:56;98004.66;;;11.29;86.35
75775;BME280;64505;51.458;7.556;2023-04-01T13:54:29;98008.94;;;11.20;87.43
75775;BME280;64505;51.458;7.556;2023-04-01T13:59:07;98015.56;;;11.07;87.03
75775;BME280;64505;51.458;7.556;2023-04-01T14:08:33;98026.19;;;10.92;88.89
75775;BME280;64505;51.458;7.556;2023-04-01T14:18:22;98034.88;;;10.72;89.55
75775;BME280;64505;51.458;7.556;2023-04-01T14:25:25;98037.00;;;10.70;90.19
75775;BME280;64505;51.458;7.556;2023-04-01T14:30:27;98048.63;;;10.64;90.15
75775;BME280;64505;51.458;7.556;2023-04-01T14:44:57;98063.69;;;10.69;89.45
75775;BME280;64505;51.458;7.556;2023-04-01T14:49:39;98061.06;;;10.74;89.71
75775;BME280;64505;51.458;7.556;2023-04-01T14:51:42;98063.97;;;10.88;90.22
75775;BME280;64505;51.458;7.556;2023-04-01T14:53:58;98060.53;;;10.82;89.68
75775;BME280;64505;51.458;7.556;2023-04-01T14:56:02;98074.03;;;10.91;90.20
75775;BME280;64505;51.458;7.556;2023-04-01T15:00:16;98074.28;;;10.79;89.96
75775;BME280;64505;51.458;7.556;2023-04-01T15:02:54;98073.47;;;10.78;90.42
75775;BME280;64505;51.458;7.556;2023-04-01T15:12:14;98085.91;;;10.63;90.54
75775;BME280;64505;51.458;7.556;2023-04-01T15:14:35;98092.50;;;10.55;91.33
75775;BME280;64505;51.458;7.556;2023-04-01T15:19:08;98097.50;;;10.57;89.46
75775;BME280;64505;51.458;7.556;2023-04-01T15:21:41;98102.78;;;10.42;90.19
75775;BME280;64505;51.458;7.556;2023-04-01T15:35:49;98116.84;;;10.72;90.41
75775;BME280;64505;51.458;7.556;2023-04-01T15:37:59;98127.94;;;10.79;90.56
75775;BME280;64505;51.458;7.556;2023-04-01T15:42:52;98121.88;;;10.79;90.12
75775;BME280;64505;51.458;7.556;2023-04-01T15:45:07;98127.66;;;10.66;90.86
75775;BME280;64505;51.458;7.556;2023-04-01T15:47:39;98129.00;;;10.68;90.99
75775;BME280;64505;51.458;7.556;2023-04-01T15:49:45;98137.72;;;10.69;91.34
75775;BME280;64505;51.458;7.556;2023-04-01T15:59:36;98142.66;;;10.40;90.89
75775;BME280;64505;51.458;7.556;2023-04-01T16:20:20;98169.59;;;10.37;90.20
75775;BME280;64505;51.458;7.556;2023-04-01T16:22:55;98167.75;;;10.38;90.63
75775;BME280;64505;51.458;7.556;2023-04-01T16:27:14;98172.25;;;10.42;91.27
75775;BME280;64505;51.458;7.556;2023-04-01T16:29:27;98171.47;;;10.42;91.20
75775;BME280;64505;51.458;7.556;2023-04-01T16:31:53;98185.97;;;10.34;91.15
75775;BME280;64505;51.458;7.556;2023-04-01T16:34:14;98191.31;;;10.44;91.31
75775;BME280;64505;51.458;7.556;2023-04-01T16:38:47;98190.75;;;10.37;91.62
75775;BME280;64505;51.458;7.556;2023-04-01T16:43:19;98193.59;;;10.25;92.92
75775;BME280;64505;51.458;7.556;2023-04-01T16:47:46;98204.19;;;10.30;92.46
75775;BME280;64505;51.458;7.556;2023-04-01T16:50:20;98193.56;;;10.20;91.68
75775;BME280;64505;51.458;7.556;2023-04-01T16:55:16;98210.75;;;10.23;91.95
75775;BME280;64505;51.458;7.556;2023-04-01T16:57:46;98210.22;;;10.21;91.72
75775;BME280;64505;51.458;7.556;2023-04-01T17:02:23;98215.75;;;10.19;91.71
75775;BME280;64505;51.458;7.556;2023-04-01T17:08:57;98223.13;;;10.17;91.84
75775;BME280;64505;51.458;7.556;2023-04-01T17:11:21;98232.28;;;10.10;92.24
75775;BME280;64505;51.458;7.556;2023-04-01T17:13:40;98232.13;;;10.16;91.66
75775;BME280;64505;51.458;7.556;2023-04-01T17:16:00;98237.09;;;10.13;92.38
75775;BME280;64505;51.458;7.556;2023-04-01T17:18:14;98233.66;;;10.12;93.10
75775;BME280;64505;51.458;7.556;2023-04-01T17:20:43;98242.63;;;10.11;91.76
75775;BME280;64505;51.458;7.556;2023-04-01T17:22:55;98242.94;;;10.15;92.48
75775;BME280;64505;51.458;7.556;2023-04-01T17:48:49;98284.19;;;9.89;92.93
75775;BME280;64505;51.458;7.556;2023-04-01T17:51:14;98285.72;;;9.80;94.33